sensor_id;sensor_type;location;lat;lon;timestamp;temperature;humidity
67192;HTU21D;54120;53.504;49.426;2023-03-11T00:00:24;-1.95;82.46
67192;HTU21D;54120;53.504;49.426;2023-03-11T00:02:53;-1.94;82.55
67192;HTU21D;54120;53.504;49.426;2023-03-11T00:05:23;-1.90;82.23
67192;HTU21D;54120;53.504;49.426;2023-03-11T00:07:51;-1.89;82.14
67192;HTU21D;54120;53.504;49.426;2023-03-11T00:10:23;-1.90;82.25
67192;HTU21D;54120;53.504;49.426;2023-03-11T00:12:50;-1.93;82.42
67192;HTU21D;54120;53.504;49.426;2023-03-11T00:15:17;-1.92;82.77
67192;HTU21D;54120;53.504;49.426;2023-03-11T00:17:43;-1.90;82.19
67192;HTU21D;54120;53.504;49.426;2023-03-11T00:20:23;-1.86;81.51
67192;HTU21D;54120;53.504;49.426;2023-03-11T00:22:50;-1.78;81.47
67192;HTU21D;54120;53.504;49.426;2023-03-11T00:25:18;-1.76;80.95
67192;HTU21D;54120;53.504;49.426;2023-03-11T00:27:44;-1.74;81.30
67192;HTU21D;54120;53.504;49.426;2023-03-11T00:30:13;-1.70;80.77
67192;HTU21D;54120;53.504;49.426;2023-03-11T00:32:39;-1.69;80.94
67192;HTU21D;54120;53.504;49.426;2023-03-11T00:35:06;-1.70;80.52
67192;HTU21D;54120;53.504;49.426;2023-03-11T00:37:33;-1.70;81.27
67192;HTU21D;54120;53.504;49.426;2023-03-11T00:40:00;-1.69;80.86
67192;HTU21D;54120;53.504;49.426;2023-03-11T00:42:26;-1.70;81.10
67192;HTU21D;54120;53.504;49.426;2023-03-11T00:44:52;-1.75;80.75
67192;HTU21D;54120;53.504;49.426;2023-03-11T00:47:18;-1.77;80.78
67192;HTU21D;54120;53.504;49.426;2023-03-11T00:49:45;-1.83;80.93
67192;HTU21D;54120;53.504;49.426;2023-03-11T00:52:11;-1.85;81.46
67192;HTU21D;54120;53.504;49.426;2023-03-11T00:54:37;-1.88;81.59
67192;HTU21D;54120;53.504;49.426;2023-03-11T00:57:03;-1.90;82.17
67192;HTU21D;54120;53.504;49.426;2023-03-11T00:59:29;-1.90;81.85
67192;HTU21D;54120;53.504;49.426;2023-03-11T01:01:55;-1.88;81.54
67192;HTU21D;54120;53.504;49.426;2023-03-11T01:04:21;-1.84;82.46
67192;HTU21D;54120;53.504;49.426;2023-03-11T01:06:47;-1.84;81.81
67192;HTU21D;54120;53.504;49.426;2023-03-11T01:09:13;-1.83;81.88
67192;HTU21D;54120;53.504;49.426;2023-03-11T01:11:39;-1.83;81.82
67192;HTU21D;54120;53.504;49.426;2023-03-11T01:14:05;-1.83;81.07
67192;HTU21D;54120;53.504;49.426;2023-03-11T01:16:31;-1.79;81.04
67192;HTU21D;54120;53.504;49.426;2023-03-11T01:18:57;-1.76;81.23
67192;HTU21D;54120;53.504;49.426;2023-03-11T01:21:23;-1.71;80.83
67192;HTU21D;54120;53.504;49.426;2023-03-11T01:23:49;-1.68;80.43
67192;HTU21D;54120;53.504;49.426;2023-03-11T01:26:15;-1.63;80.08
67192;HTU21D;54120;53.504;49.426;2023-03-11T01:28:41;-1.63;80.39
67192;HTU21D;54120;53.504;49.426;2023-03-11T01:31:08;-1.63;80.40
67192;HTU21D;54120;53.504;49.426;2023-03-11T01:33:35;-1.62;80.31
67192;HTU21D;54120;53.504;49.426;2023-03-11T01:36:01;-1.64;80.78
67192;HTU21D;54120;53.504;49.426;2023-03-11T01:38:27;-1.72;80.83
67192;HTU21D;54120;53.504;49.426;2023-03-11T01:40:53;-1.83;80.90
67192;HTU21D;54120;53.504;49.426;2023-03-11T01:49:00;-2.03;81.75
67192;HTU21D;54120;53.504;49.426;2023-03-11T01:51:32;-2.08;81.85
67192;HTU21D;54120;53.504;49.426;2023-03-11T01:54:04;-2.08;82.42
67192;HTU21D;54120;53.504;49.426;2023-03-11T01:56:32;-2.09;82.36
67192;HTU21D;54120;53.504;49.426;2023-03-11T01:58:58;-2.14;82.73
67192;HTU21D;54120;53.504;49.426;2023-03-11T02:01:24;-2.23;83.07
67192;HTU21D;54120;53.504;49.426;2023-03-11T02:03:51;-2.28;83.49
67192;HTU21D;54120;53.504;49.426;2023-03-11T02:06:21;-2.28;82.98
67192;HTU21D;54120;53.504;49.426;2023-03-11T02:08:48;-2.30;83.12
67192;HTU21D;54120;53.504;49.426;2023-03-11T02:11:18;-2.30;83.07
67192;HTU21D;54120;53.504;49.426;2023-03-11T02:13:45;-2.31;83.12
67192;HTU21D;54120;53.504;49.426;2023-03-11T02:16:12;-2.33;82.90
67192;HTU21D;54120;53.504;49.426;2023-03-11T02:18:39;-2.34;83.32
67192;HTU21D;54120;53.504;49.426;2023-03-11T02:26:16;-2.36;83.45
67192;HTU21D;54120;53.504;49.426;2023-03-11T02:28:45;-2.41;83.35
67192;HTU21D;54120;53.504;49.426;2023-03-11T02:31:13;-2.38;83.13
67192;HTU21D;54120;53.504;49.426;2023-03-11T02:33:40;-2.36;82.85
67192;HTU21D;54120;53.504;49.426;2023-03-11T02:36:32;-2.27;81.87
67192;HTU21D;54120;53.504;49.426;2023-03-11T02:38:58;-2.21;81.71
67192;HTU21D;54120;53.504;49.426;2023-03-11T02:41:24;-2.20;81.30
67192;HTU21D;54120;53.504;49.426;2023-03-11T02:43:51;-2.18;80.53
67192;HTU21D;54120;53.504;49.426;2023-03-11T02:46:17;-2.15;80.25
67192;HTU21D;54120;53.504;49.426;2023-03-11T02:48:44;-2.19;80.60
67192;HTU21D;54120;53.504;49.426;2023-03-11T02:51:11;-2.19;80.30
67192;HTU21D;54120;53.504;49.426;2023-03-11T02:53:46;-2.19;80.92
67192;HTU21D;54120;53.504;49.426;2023-03-11T02:56:13;-2.19;80.31
67192;HTU21D;54120;53.504;49.426;2023-03-11T02:58:39;-2.16;79.81
67192;HTU21D;54120;53.504;49.426;2023-03-11T03:01:05;-2.15;79.62
67192;HTU21D;54120;53.504;49.426;2023-03-11T03:03:32;-2.12;78.92
67192;HTU21D;54120;53.504;49.426;2023-03-11T03:05:59;-2.07;78.43
67192;HTU21D;54120;53.504;49.426;2023-03-11T03:08:25;-2.00;78.08
67192;HTU21D;54120;53.504;49.426;2023-03-11T03:10:51;-1.97;78.64
67192;HTU21D;54120;53.504;49.426;2023-03-11T03:13:18;-1.90;77.78
67192;HTU21D;54120;53.504;49.426;2023-03-11T03:15:44;-1.60;77.70
67192;HTU21D;54120;53.504;49.426;2023-03-11T03:18:10;-0.46;74.29
67192;HTU21D;54120;53.504;49.426;2023-03-11T03:20:36;0.15;70.07
67192;HTU21D;54120;53.504;49.426;2023-03-11T03:23:02;0.10;69.93
67192;HTU21D;54120;53.504;49.426;2023-03-11T03:25:28;0.06;70.74
67192;HTU21D;54120;53.504;49.426;2023-03-11T03:27:54;0.33;69.95
67192;HTU21D;54120;53.504;49.426;2023-03-11T03:30:20;1.09;67.91
67192;HTU21D;54120;53.504;49.426;2023-03-11T03:32:46;1.33;65.38
67192;HTU21D;54120;53.504;49.426;2023-03-11T03:35:12;1.40;65.37
67192;HTU21D;54120;53.504;49.426;2023-03-11T03:37:38;1.26;65.67
67192;HTU21D;54120;53.504;49.426;2023-03-11T03:40:06;0.97;66.62
67192;HTU21D;54120;53.504;49.426;2023-03-11T03:42:34;0.23;68.46
67192;HTU21D;54120;53.504;49.426;2023-03-11T03:45:00;-0.26;70.19
67192;HTU21D;54120;53.504;49.426;2023-03-11T03:47:26;-0.47;71.48
67192;HTU21D;54120;53.504;49.426;2023-03-11T03:49:52;-0.64;72.19
67192;HTU21D;54120;53.504;49.426;2023-03-11T03:52:19;-0.50;71.99
67192;HTU21D;54120;53.504;49.426;2023-03-11T03:54:45;-0.30;71.54
67192;HTU21D;54120;53.504;49.426;2023-03-11T03:57:12;-0.23;71.83
67192;HTU21D;54120;53.504;49.426;2023-03-11T03:59:39;-0.30;71.77
67192;HTU21D;54120;53.504;49.426;2023-03-11T04:04:17;1.12;69.11
67192;HTU21D;54120;53.504;49.426;2023-03-11T04:06:43;3.77;59.60
67192;HTU21D;54120;53.504;49.426;2023-03-11T04:09:10;5.84;52.64
67192;HTU21D;54120;53.504;49.426;2023-03-11T04:11:37;5.38;52.75
67192;HTU21D;54120;53.504;49.426;2023-03-11T04:14:04;5.24;52.04
67192;HTU21D;54120;53.504;49.426;2023-03-11T04:16:31;3.19;58.40
67192;HTU21D;54120;53.504;49.426;2023-03-11T04:18:57;2.29;62.63
67192;HTU21D;54120;53.504;49.426;2023-03-11T04:21:23;3.45;60.59
67192;HTU21D;54120;53.504;49.426;2023-03-11T04:23:49;3.54;58.43
67192;HTU21D;54120;53.504;49.426;2023-03-11T04:26:16;1.94;64.01
67192;HTU21D;54120;53.504;49.426;2023-03-11T04:28:42;1.72;65.48
67192;HTU21D;54120;53.504;49.426;2023-03-11T04:31:08;1.38;67.19
67192;HTU21D;54120;53.504;49.426;2023-03-11T04:33:34;1.66;67.62
67192;HTU21D;54120;53.504;49.426;2023-03-11T04:36:05;2.32;65.26
67192;HTU21D;54120;53.504;49.426;2023-03-11T04:38:31;4.28;59.20
67192;HTU21D;54120;53.504;49.426;2023-03-11T04:41:02;6.14;53.25
67192;HTU21D;54120;53.504;49.426;2023-03-11T04:43:29;7.54;48.47
67192;HTU21D;54120;53.504;49.426;2023-03-11T04:45:55;8.70;45.38
67192;HTU21D;54120;53.504;49.426;2023-03-11T04:48:22;10.25;41.65
67192;HTU21D;54120;53.504;49.426;2023-03-11T04:50:49;10.77;38.12
67192;HTU21D;54120;53.504;49.426;2023-03-11T04:53:15;8.13;44.36
67192;HTU21D;54120;53.504;49.426;2023-03-11T04:55:41;8.03;46.15
67192;HTU21D;54120;53.504;49.426;2023-03-11T04:58:07;7.82;46.26
67192;HTU21D;54120;53.504;49.426;2023-03-11T05:00:33;6.08;50.39
67192;HTU21D;54120;53.504;49.426;2023-03-11T05:03:00;4.65;54.91
67192;HTU21D;54120;53.504;49.426;2023-03-11T05:05:26;4.78;55.93
67192;HTU21D;54120;53.504;49.426;2023-03-11T05:07:52;6.88;49.74
67192;HTU21D;54120;53.504;49.426;2023-03-11T05:10:18;7.73;45.53
67192;HTU21D;54120;53.504;49.426;2023-03-11T05:12:50;7.47;46.92
67192;HTU21D;54120;53.504;49.426;2023-03-11T05:15:17;8.01;44.14
67192;HTU21D;54120;53.504;49.426;2023-03-11T05:17:43;6.95;48.68
67192;HTU21D;54120;53.504;49.426;2023-03-11T05:20:10;7.62;46.92
67192;HTU21D;54120;53.504;49.426;2023-03-11T05:22:36;8.98;42.42
67192;HTU21D;54120;53.504;49.426;2023-03-11T05:25:03;9.45;41.44
67192;HTU21D;54120;53.504;49.426;2023-03-11T05:27:29;8.57;43.68
67192;HTU21D;54120;53.504;49.426;2023-03-11T05:29:55;8.14;45.08
67192;HTU21D;54120;53.504;49.426;2023-03-11T05:32:21;7.44;47.06
67192;HTU21D;54120;53.504;49.426;2023-03-11T05:34:47;7.59;46.19
67192;HTU21D;54120;53.504;49.426;2023-03-11T05:37:14;7.98;44.70
67192;HTU21D;54120;53.504;49.426;2023-03-11T05:39:40;7.87;46.69
67192;HTU21D;54120;53.504;49.426;2023-03-11T05:42:06;7.64;45.48
67192;HTU21D;54120;53.504;49.426;2023-03-11T05:44:33;7.82;45.31
67192;HTU21D;54120;53.504;49.426;2023-03-11T05:46:59;8.12;45.30
67192;HTU21D;54120;53.504;49.426;2023-03-11T05:49:26;7.70;45.64
67192;HTU21D;54120;53.504;49.426;2023-03-11T05:51:53;8.48;45.61
67192;HTU21D;54120;53.504;49.426;2023-03-11T05:54:19;9.64;41.32
67192;HTU21D;54120;53.504;49.426;2023-03-11T05:56:46;8.93;42.08
67192;HTU21D;54120;53.504;49.426;2023-03-11T05:59:13;7.42;46.60
67192;HTU21D;54120;53.504;49.426;2023-03-11T06:01:40;7.61;47.02
67192;HTU21D;54120;53.504;49.426;2023-03-11T06:04:08;9.97;40.67
67192;HTU21D;54120;53.504;49.426;2023-03-11T06:06:35;10.84;38.02
67192;HTU21D;54120;53.504;49.426;2023-03-11T06:11:06;10.04;38.75
67192;HTU21D;54120;53.504;49.426;2023-03-11T06:13:33;7.98;43.84
67192;HTU21D;54120;53.504;49.426;2023-03-11T06:15:59;6.67;48.19
67192;HTU21D;54120;53.504;49.426;2023-03-11T06:18:26;6.59;48.12
67192;HTU21D;54120;53.504;49.426;2023-03-11T06:20:56;6.64;47.31
67192;HTU21D;54120;53.504;49.426;2023-03-11T06:23:23;8.13;43.58
67192;HTU21D;54120;53.504;49.426;2023-03-11T06:26:03;9.56;39.99
67192;HTU21D;54120;53.504;49.426;2023-03-11T06:28:30;7.16;45.51
67192;HTU21D;54120;53.504;49.426;2023-03-11T06:31:09;6.04;49.65
67192;HTU21D;54120;53.504;49.426;2023-03-11T06:33:36;6.33;49.18
67192;HTU21D;54120;53.504;49.426;2023-03-11T06:36:03;7.30;46.06
67192;HTU21D;54120;53.504;49.426;2023-03-11T06:38:30;9.05;41.23
67192;HTU21D;54120;53.504;49.426;2023-03-11T06:41:01;9.15;39.88
67192;HTU21D;54120;53.504;49.426;2023-03-11T06:43:29;8.68;41.61
67192;HTU21D;54120;53.504;49.426;2023-03-11T06:45:57;8.80;41.66
67192;HTU21D;54120;53.504;49.426;2023-03-11T06:48:24;8.31;42.79
67192;HTU21D;54120;53.504;49.426;2023-03-11T06:55:33;12.36;32.80
67192;HTU21D;54120;53.504;49.426;2023-03-11T06:57:59;11.19;35.21
67192;HTU21D;54120;53.504;49.426;2023-03-11T07:00:27;11.63;34.28
67192;HTU21D;54120;53.504;49.426;2023-03-11T07:02:53;12.60;33.21
67192;HTU21D;54120;53.504;49.426;2023-03-11T07:05:19;11.92;33.75
67192;HTU21D;54120;53.504;49.426;2023-03-11T07:07:45;12.11;33.34
67192;HTU21D;54120;53.504;49.426;2023-03-11T07:10:11;11.70;33.47
67192;HTU21D;54120;53.504;49.426;2023-03-11T07:12:37;12.77;32.11
67192;HTU21D;54120;53.504;49.426;2023-03-11T07:15:03;14.22;30.03
67192;HTU21D;54120;53.504;49.426;2023-03-11T07:17:30;14.53;28.16
67192;HTU21D;54120;53.504;49.426;2023-03-11T07:19:56;13.73;29.90
67192;HTU21D;54120;53.504;49.426;2023-03-11T07:22:22;14.25;28.66
67192;HTU21D;54120;53.504;49.426;2023-03-11T07:24:48;14.58;28.04
67192;HTU21D;54120;53.504;49.426;2023-03-11T07:27:15;14.92;28.36
67192;HTU21D;54120;53.504;49.426;2023-03-11T07:29:41;14.58;28.08
67192;HTU21D;54120;53.504;49.426;2023-03-11T07:32:07;14.25;28.47
67192;HTU21D;54120;53.504;49.426;2023-03-11T07:34:34;13.86;29.59
67192;HTU21D;54120;53.504;49.426;2023-03-11T07:37:00;12.01;32.70
67192;HTU21D;54120;53.504;49.426;2023-03-11T07:39:26;8.60;40.32
67192;HTU21D;54120;53.504;49.426;2023-03-11T07:41:52;7.14;44.61
67192;HTU21D;54120;53.504;49.426;2023-03-11T07:44:18;7.41;44.24
67192;HTU21D;54120;53.504;49.426;2023-03-11T07:46:45;7.39;43.54
67192;HTU21D;54120;53.504;49.426;2023-03-11T07:50:10;6.05;48.92
67192;HTU21D;54120;53.504;49.426;2023-03-11T07:52:37;5.72;49.49
67192;HTU21D;54120;53.504;49.426;2023-03-11T07:55:04;5.21;50.85
67192;HTU21D;54120;53.504;49.426;2023-03-11T07:57:30;4.41;53.00
67192;HTU21D;54120;53.504;49.426;2023-03-11T08:00:03;3.65;55.95
67192;HTU21D;54120;53.504;49.426;2023-03-11T08:02:30;3.08;58.11
67192;HTU21D;54120;53.504;49.426;2023-03-11T08:04:56;3.21;59.38
67192;HTU21D;54120;53.504;49.426;2023-03-11T08:07:22;3.64;57.03
67192;HTU21D;54120;53.504;49.426;2023-03-11T08:09:49;3.52;55.90
67192;HTU21D;54120;53.504;49.426;2023-03-11T08:12:15;3.31;57.12
67192;HTU21D;54120;53.504;49.426;2023-03-11T08:14:41;3.30;57.48
67192;HTU21D;54120;53.504;49.426;2023-03-11T08:17:09;3.60;57.11
67192;HTU21D;54120;53.504;49.426;2023-03-11T08:19:35;3.87;56.76
67192;HTU21D;54120;53.504;49.426;2023-03-11T08:22:07;4.47;54.11
67192;HTU21D;54120;53.504;49.426;2023-03-11T08:24:34;4.66;53.04
67192;HTU21D;54120;53.504;49.426;2023-03-11T08:27:00;4.13;52.97
67192;HTU21D;54120;53.504;49.426;2023-03-11T08:29:27;4.52;52.75
67192;HTU21D;54120;53.504;49.426;2023-03-11T08:31:53;4.66;51.31
67192;HTU21D;54120;53.504;49.426;2023-03-11T08:34:19;4.44;52.43
67192;HTU21D;54120;53.504;49.426;2023-03-11T08:36:46;3.53;56.13
67192;HTU21D;54120;53.504;49.426;2023-03-11T08:39:12;2.95;56.49
67192;HTU21D;54120;53.504;49.426;2023-03-11T08:41:38;2.73;56.85
67192;HTU21D;54120;53.504;49.426;2023-03-11T08:44:05;2.83;57.41
67192;HTU21D;54120;53.504;49.426;2023-03-11T08:49:06;2.80;55.86
67192;HTU21D;54120;53.504;49.426;2023-03-11T08:51:33;2.78;55.95
67192;HTU21D;54120;53.504;49.426;2023-03-11T08:53:59;2.44;57.37
67192;HTU21D;54120;53.504;49.426;2023-03-11T08:56:26;2.38;57.56
67192;HTU21D;54120;53.504;49.426;2023-03-11T08:58:52;2.74;57.56
67192;HTU21D;54120;53.504;49.426;2023-03-11T09:01:18;3.13;55.76
67192;HTU21D;54120;53.504;49.426;2023-03-11T09:03:48;2.86;54.88
67192;HTU21D;54120;53.504;49.426;2023-03-11T09:06:15;2.99;53.18
67192;HTU21D;54120;53.504;49.426;2023-03-11T09:08:43;3.44;55.76
67192;HTU21D;54120;53.504;49.426;2023-03-11T09:11:09;3.43;55.00
67192;HTU21D;54120;53.504;49.426;2023-03-11T09:13:38;3.53;53.53
67192;HTU21D;54120;53.504;49.426;2023-03-11T09:16:27;3.14;53.88
67192;HTU21D;54120;53.504;49.426;2023-03-11T09:18:53;2.89;56.06
67192;HTU21D;54120;53.504;49.426;2023-03-11T09:21:19;3.08;53.65
67192;HTU21D;54120;53.504;49.426;2023-03-11T09:23:45;2.86;53.49
67192;HTU21D;54120;53.504;49.426;2023-03-11T09:26:12;2.88;55.09
67192;HTU21D;54120;53.504;49.426;2023-03-11T09:30:30;3.55;51.88
67192;HTU21D;54120;53.504;49.426;2023-03-11T09:32:56;3.91;51.68
67192;HTU21D;54120;53.504;49.426;2023-03-11T09:35:22;3.98;52.04
67192;HTU21D;54120;53.504;49.426;2023-03-11T09:37:49;3.58;52.67
67192;HTU21D;54120;53.504;49.426;2023-03-11T09:40:20;3.32;53.77
67192;HTU21D;54120;53.504;49.426;2023-03-11T09:45:35;3.36;54.81
67192;HTU21D;54120;53.504;49.426;2023-03-11T09:48:34;3.11;54.56
67192;HTU21D;54120;53.504;49.426;2023-03-11T09:53:42;2.46;56.55
67192;HTU21D;54120;53.504;49.426;2023-03-11T09:56:12;2.72;55.31
67192;HTU21D;54120;53.504;49.426;2023-03-11T09:58:51;2.91;55.66
67192;HTU21D;54120;53.504;49.426;2023-03-11T10:01:24;3.14;55.12
67192;HTU21D;54120;53.504;49.426;2023-03-11T10:03:53;3.13;54.13
67192;HTU21D;54120;53.504;49.426;2023-03-11T10:06:27;2.57;54.13
67192;HTU21D;54120;53.504;49.426;2023-03-11T10:11:43;3.75;51.48
67192;HTU21D;54120;53.504;49.426;2023-03-11T10:22:39;3.54;51.04
67192;HTU21D;54120;53.504;49.426;2023-03-11T10:25:15;3.98;51.55
67192;HTU21D;54120;53.504;49.426;2023-03-11T10:27:49;4.57;47.12
67192;HTU21D;54120;53.504;49.426;2023-03-11T10:30:54;4.98;46.39
67192;HTU21D;54120;53.504;49.426;2023-03-11T10:33:36;5.17;48.63
67192;HTU21D;54120;53.504;49.426;2023-03-11T10:36:19;4.78;50.63
67192;HTU21D;54120;53.504;49.426;2023-03-11T10:38:50;4.75;51.44
67192;HTU21D;54120;53.504;49.426;2023-03-11T10:41:31;4.97;51.32
67192;HTU21D;54120;53.504;49.426;2023-03-11T10:44:14;4.94;51.17
67192;HTU21D;54120;53.504;49.426;2023-03-11T10:46:41;4.01;52.98
67192;HTU21D;54120;53.504;49.426;2023-03-11T10:49:15;3.34;55.58
67192;HTU21D;54120;53.504;49.426;2023-03-11T10:51:45;3.36;56.15
67192;HTU21D;54120;53.504;49.426;2023-03-11T10:57:27;4.24;52.66
67192;HTU21D;54120;53.504;49.426;2023-03-11T10:59:55;4.07;52.22
67192;HTU21D;54120;53.504;49.426;2023-03-11T11:07:36;3.68;55.09
67192;HTU21D;54120;53.504;49.426;2023-03-11T11:10:22;3.44;54.31
67192;HTU21D;54120;53.504;49.426;2023-03-11T11:15:34;2.94;57.75
67192;HTU21D;54120;53.504;49.426;2023-03-11T11:18:15;3.02;57.02
67192;HTU21D;54120;53.504;49.426;2023-03-11T11:21:29;3.19;56.80
67192;HTU21D;54120;53.504;49.426;2023-03-11T11:26:37;2.87;59.02
67192;HTU21D;54120;53.504;49.426;2023-03-11T11:29:13;2.76;58.73
67192;HTU21D;54120;53.504;49.426;2023-03-11T11:31:44;2.53;58.49
67192;HTU21D;54120;53.504;49.426;2023-03-11T11:37:00;2.57;58.64
67192;HTU21D;54120;53.504;49.426;2023-03-11T11:39:31;2.85;57.50
67192;HTU21D;54120;53.504;49.426;2023-03-11T11:41:58;3.21;55.09
67192;HTU21D;54120;53.504;49.426;2023-03-11T11:44:32;3.35;54.31
67192;HTU21D;54120;53.504;49.426;2023-03-11T11:47:38;3.33;54.55
67192;HTU21D;54120;53.504;49.426;2023-03-11T11:50:26;3.24;53.48
67192;HTU21D;54120;53.504;49.426;2023-03-11T11:55:51;2.19;56.47
67192;HTU21D;54120;53.504;49.426;2023-03-11T11:58:21;2.65;56.09
67192;HTU21D;54120;53.504;49.426;2023-03-11T12:00:59;2.66;55.65
67192;HTU21D;54120;53.504;49.426;2023-03-11T12:09:46;2.66;58.23
67192;HTU21D;54120;53.504;49.426;2023-03-11T12:17:11;3.40;55.30
67192;HTU21D;54120;53.504;49.426;2023-03-11T12:30:34;2.70;60.25
67192;HTU21D;54120;53.504;49.426;2023-03-11T12:33:12;2.20;62.36
67192;HTU21D;54120;53.504;49.426;2023-03-11T12:35:47;1.86;63.93
67192;HTU21D;54120;53.504;49.426;2023-03-11T12:38:34;1.69;64.53
67192;HTU21D;54120;53.504;49.426;2023-03-11T12:41:04;1.80;64.03
67192;HTU21D;54120;53.504;49.426;2023-03-11T12:46:00;1.58;63.80
67192;HTU21D;54120;53.504;49.426;2023-03-11T12:50:53;1.47;63.85
67192;HTU21D;54120;53.504;49.426;2023-03-11T12:53:19;1.53;64.02
67192;HTU21D;54120;53.504;49.426;2023-03-11T12:58:46;1.55;64.69
67192;HTU21D;54120;53.504;49.426;2023-03-11T13:01:43;1.65;64.79
67192;HTU21D;54120;53.504;49.426;2023-03-11T13:04:27;1.53;63.98
67192;HTU21D;54120;53.504;49.426;2023-03-11T13:10:12;1.61;64.99
67192;HTU21D;54120;53.504;49.426;2023-03-11T13:12:50;1.79;64.01
67192;HTU21D;54120;53.504;49.426;2023-03-11T13:17:58;1.88;63.82
67192;HTU21D;54120;53.504;49.426;2023-03-11T13:42:43;1.06;68.71
67192;HTU21D;54120;53.504;49.426;2023-03-11T13:45:34;1.06;68.49
67192;HTU21D;54120;53.504;49.426;2023-03-11T13:50:54;0.80;69.07
67192;HTU21D;54120;53.504;49.426;2023-03-11T13:53:27;0.73;69.87
67192;HTU21D;54120;53.504;49.426;2023-03-11T13:55:54;0.72;69.23
67192;HTU21D;54120;53.504;49.426;2023-03-11T13:58:23;0.59;70.07
67192;HTU21D;54120;53.504;49.426;2023-03-11T14:00:54;0.54;70.30
67192;HTU21D;54120;53.504;49.426;2023-03-11T14:03:22;0.50;70.44
67192;HTU21D;54120;53.504;49.426;2023-03-11T14:06:18;0.39;71.42
67192;HTU21D;54120;53.504;49.426;2023-03-11T14:08:53;0.38;71.90
67192;HTU21D;54120;53.504;49.426;2023-03-11T14:11:24;0.32;71.69
67192;HTU21D;54120;53.504;49.426;2023-03-11T14:13:52;0.18;71.23
67192;HTU21D;54120;53.504;49.426;2023-03-11T14:16:33;0.13;70.68
67192;HTU21D;54120;53.504;49.426;2023-03-11T14:19:16;0.04;70.77
67192;HTU21D;54120;53.504;49.426;2023-03-11T14:21:47;0.01;69.85
67192;HTU21D;54120;53.504;49.426;2023-03-11T14:24:59;-0.08;69.00
67192;HTU21D;54120;53.504;49.426;2023-03-11T14:27:27;-0.12;68.87
67192;HTU21D;54120;53.504;49.426;2023-03-11T14:29:53;-0.21;69.13
67192;HTU21D;54120;53.504;49.426;2023-03-11T14:32:29;-0.22;69.17
67192;HTU21D;54120;53.504;49.426;2023-03-11T14:34:56;-0.30;69.97
67192;HTU21D;54120;53.504;49.426;2023-03-11T14:39:54;-0.36;70.55
67192;HTU21D;54120;53.504;49.426;2023-03-11T14:47:53;-0.45;70.97
67192;HTU21D;54120;53.504;49.426;2023-03-11T14:50:56;-0.49;71.22
67192;HTU21D;54120;53.504;49.426;2023-03-11T14:53:29;-0.51;71.62
67192;HTU21D;54120;53.504;49.426;2023-03-11T14:56:14;-0.58;72.05
67192;HTU21D;54120;53.504;49.426;2023-03-11T14:58:45;-0.59;72.48
67192;HTU21D;54120;53.504;49.426;2023-03-11T15:01:22;-0.58;72.77
67192;HTU21D;54120;53.504;49.426;2023-03-11T15:04:14;-0.60;72.63
67192;HTU21D;54120;53.504;49.426;2023-03-11T15:06:42;-0.59;72.26
67192;HTU21D;54120;53.504;49.426;2023-03-11T15:09:17;-0.58;72.90
67192;HTU21D;54120;53.504;49.426;2023-03-11T15:11:53;-0.64;73.31
67192;HTU21D;54120;53.504;49.426;2023-03-11T15:14:32;-0.62;73.23
67192;HTU21D;54120;53.504;49.426;2023-03-11T15:17:28;-0.58;73.45
67192;HTU21D;54120;53.504;49.426;2023-03-11T15:19:57;-0.62;73.37
67192;HTU21D;54120;53.504;49.426;2023-03-11T15:24:56;-0.68;71.98
67192;HTU21D;54120;53.504;49.426;2023-03-11T15:27:33;-0.71;72.33
67192;HTU21D;54120;53.504;49.426;2023-03-11T15:30:01;-0.75;71.90
67192;HTU21D;54120;53.504;49.426;2023-03-11T15:35:25;-0.81;72.34
67192;HTU21D;54120;53.504;49.426;2023-03-11T15:38:31;-0.80;71.87
67192;HTU21D;54120;53.504;49.426;2023-03-11T15:41:47;-0.80;72.02
67192;HTU21D;54120;53.504;49.426;2023-03-11T15:44:29;-0.82;72.29
67192;HTU21D;54120;53.504;49.426;2023-03-11T15:46:56;-0.86;72.48
67192;HTU21D;54120;53.504;49.426;2023-03-11T15:49:26;-0.85;72.33
67192;HTU21D;54120;53.504;49.426;2023-03-11T15:51:57;-0.91;72.66
67192;HTU21D;54120;53.504;49.426;2023-03-11T15:54:24;-0.97;72.92
67192;HTU21D;54120;53.504;49.426;2023-03-11T15:56:51;-1.01;73.71
67192;HTU21D;54120;53.504;49.426;2023-03-11T15:59:20;-1.08;73.45
67192;HTU21D;54120;53.504;49.426;2023-03-11T16:01:47;-1.09;73.73
67192;HTU21D;54120;53.504;49.426;2023-03-11T16:04:17;-1.05;73.69
67192;HTU21D;54120;53.504;49.426;2023-03-11T16:06:45;-1.05;73.70
67192;HTU21D;54120;53.504;49.426;2023-03-11T16:09:12;-1.04;73.67
67192;HTU21D;54120;53.504;49.426;2023-03-11T16:11:40;-1.05;74.13
67192;HTU21D;54120;53.504;49.426;2023-03-11T16:14:14;-1.12;74.27
67192;HTU21D;54120;53.504;49.426;2023-03-11T16:16:41;-1.16;74.10
67192;HTU21D;54120;53.504;49.426;2023-03-11T16:19:08;-1.19;74.44
67192;HTU21D;54120;53.504;49.426;2023-03-11T16:21:37;-1.23;74.51
67192;HTU21D;54120;53.504;49.426;2023-03-11T16:24:05;-1.26;74.65
67192;HTU21D;54120;53.504;49.426;2023-03-11T16:26:33;-1.32;75.34
67192;HTU21D;54120;53.504;49.426;2023-03-11T16:29:00;-1.33;74.80
67192;HTU21D;54120;53.504;49.426;2023-03-11T16:31:26;-1.34;75.05
67192;HTU21D;54120;53.504;49.426;2023-03-11T16:33:53;-1.36;74.80
67192;HTU21D;54120;53.504;49.426;2023-03-11T16:36:19;-1.40;74.86
67192;HTU21D;54120;53.504;49.426;2023-03-11T16:38:49;-1.42;75.08
67192;HTU21D;54120;53.504;49.426;2023-03-11T16:41:16;-1.44;75.13
67192;HTU21D;54120;53.504;49.426;2023-03-11T16:43:42;-1.40;74.80
67192;HTU21D;54120;53.504;49.426;2023-03-11T16:46:08;-1.39;74.77
67192;HTU21D;54120;53.504;49.426;2023-03-11T16:48:35;-1.38;75.00
67192;HTU21D;54120;53.504;49.426;2023-03-11T16:51:02;-1.39;74.95
67192;HTU21D;54120;53.504;49.426;2023-03-11T16:53:28;-1.45;75.29
67192;HTU21D;54120;53.504;49.426;2023-03-11T16:55:54;-1.42;75.38
67192;HTU21D;54120;53.504;49.426;2023-03-11T16:58:21;-1.44;75.05
67192;HTU21D;54120;53.504;49.426;2023-03-11T17:00:47;-1.47;75.25
67192;HTU21D;54120;53.504;49.426;2023-03-11T17:03:15;-1.50;75.50
67192;HTU21D;54120;53.504;49.426;2023-03-11T17:05:43;-1.50;75.41
67192;HTU21D;54120;53.504;49.426;2023-03-11T17:08:11;-1.55;75.57
67192;HTU21D;54120;53.504;49.426;2023-03-11T17:10:40;-1.53;75.48
67192;HTU21D;54120;53.504;49.426;2023-03-11T17:13:08;-1.54;75.44
67192;HTU21D;54120;53.504;49.426;2023-03-11T17:15:36;-1.59;75.77
67192;HTU21D;54120;53.504;49.426;2023-03-11T17:18:04;-1.61;75.95
67192;HTU21D;54120;53.504;49.426;2023-03-11T17:20:30;-1.68;76.26
67192;HTU21D;54120;53.504;49.426;2023-03-11T17:22:57;-1.70;76.53
67192;HTU21D;54120;53.504;49.426;2023-03-11T17:25:23;-1.70;76.25
67192;HTU21D;54120;53.504;49.426;2023-03-11T17:27:49;-1.71;76.28
67192;HTU21D;54120;53.504;49.426;2023-03-11T17:30:16;-1.75;76.46
67192;HTU21D;54120;53.504;49.426;2023-03-11T17:32:45;-1.74;76.52
67192;HTU21D;54120;53.504;49.426;2023-03-11T17:35:11;-1.78;76.74
67192;HTU21D;54120;53.504;49.426;2023-03-11T17:37:37;-1.79;76.86
67192;HTU21D;54120;53.504;49.426;2023-03-11T17:40:06;-1.82;76.98